createdAt,value
2023-05-09T00:01:19.275Z,4.70
2023-05-09T00:03:47.682Z,4.70
2023-05-09T00:06:16.133Z,4.60
2023-05-09T00:08:44.143Z,4.70
2023-05-09T00:11:12.138Z,4.60
2023-05-09T00:13:40.148Z,4.60
2023-05-09T00:16:08.703Z,4.50
2023-05-09T00:18:38.171Z,4.50
2023-05-09T00:21:06.336Z,4.50
2023-05-09T00:23:34.481Z,4.50
2023-05-09T00:26:02.820Z,4.40
2023-05-09T00:28:30.881Z,4.40
2023-05-09T00:30:58.991Z,4.30
2023-05-09T00:33:27.561Z,4.30
2023-05-09T00:35:57.331Z,4.30
2023-05-09T00:38:26.526Z,4.30
2023-05-09T00:40:54.662Z,4.30
2023-05-09T00:43:22.757Z,4.30
2023-05-09T00:45:51.583Z,4.40
2023-05-09T00:48:20.678Z,4.30
2023-05-09T00:50:53.147Z,4.30
2023-05-09T00:53:22.715Z,4.30
2023-05-09T00:55:51.140Z,4.30
2023-05-09T00:58:20.326Z,4.30
2023-05-09T01:00:48.563Z,4.30
2023-05-09T01:03:16.989Z,4.30
2023-05-09T01:05:54.156Z,4.30
2023-05-09T01:08:36.084Z,4.40
2023-05-09T01:11:11.142Z,4.40
2023-05-09T01:13:47.968Z,4.50
2023-05-09T01:16:25.228Z,4.50
2023-05-09T01:19:02.072Z,4.60
2023-05-09T01:21:32.395Z,4.60
2023-05-09T01:24:27.736Z,4.70
2023-05-09T01:27:20.790Z,4.70
2023-05-09T01:29:57.269Z,4.70
2023-05-09T01:32:27.803Z,4.70
2023-05-09T01:35:00.781Z,4.80
2023-05-09T01:37:32.929Z,4.80
2023-05-09T01:40:11.365Z,4.80
2023-05-09T01:42:43.638Z,4.90
2023-05-09T01:45:15.006Z,5.00
2023-05-09T01:47:45.091Z,5.00
2023-05-09T01:50:13.802Z,5.10
2023-05-09T01:52:43.574Z,5.10
2023-05-09T01:55:12.912Z,5.10
2023-05-09T01:57:41.621Z,5.10
2023-05-09T02:00:12.936Z,5.10
2023-05-09T02:02:43.217Z,5.20
2023-05-09T02:05:12.965Z,5.10
2023-05-09T02:07:43.165Z,5.10
2023-05-09T02:10:12.367Z,5.20
2023-05-09T02:12:40.821Z,5.20
2023-05-09T02:15:09.944Z,5.20
2023-05-09T02:17:43.265Z,5.20
2023-05-09T02:20:12.101Z,5.10
2023-05-09T02:22:41.575Z,5.20
2023-05-09T02:25:15.469Z,5.20
2023-05-09T02:27:46.420Z,5.20
2023-05-09T02:30:20.568Z,5.30
2023-05-09T02:32:51.524Z,5.30
2023-05-09T02:35:21.641Z,5.30
2023-05-09T02:37:50.312Z,5.30
2023-05-09T02:40:20.170Z,5.40
2023-05-09T02:42:48.731Z,5.40
2023-05-09T02:45:17.151Z,5.40
2023-05-09T02:47:45.281Z,5.40
2023-05-09T02:50:14.755Z,5.40
2023-05-09T02:52:43.376Z,5.40
2023-05-09T02:55:11.745Z,5.50
2023-05-09T02:57:41.843Z,5.50
2023-05-09T03:00:11.394Z,5.50
2023-05-09T03:02:40.903Z,5.40
2023-05-09T03:05:17.690Z,5.40
2023-05-09T03:07:46.056Z,5.50
2023-05-09T03:10:14.142Z,5.40
2023-05-09T03:12:43.816Z,5.40
2023-05-09T03:15:13.330Z,5.40
2023-05-09T03:17:42.791Z,5.40
2023-05-09T03:20:11.423Z,5.30
2023-05-09T03:22:40.815Z,5.30
2023-05-09T03:25:11.796Z,5.30
2023-05-09T03:27:40.424Z,5.30
2023-05-09T03:30:13.876Z,5.30
2023-05-09T03:32:43.658Z,5.30
2023-05-09T03:35:11.824Z,5.20
2023-05-09T03:37:41.216Z,5.20
2023-05-09T03:40:10.719Z,5.20
2023-05-09T03:42:46.747Z,5.20
2023-05-09T03:45:15.078Z,5.10
2023-05-09T03:47:44.552Z,5.10
2023-05-09T03:50:12.958Z,5.10
2023-05-09T03:52:42.567Z,5.00
2023-05-09T03:55:12.139Z,5.00
2023-05-09T03:57:40.248Z,5.00
2023-05-09T04:00:10.481Z,5.00
2023-05-09T04:02:52.785Z,5.00
2023-05-09T04:05:30.334Z,4.90
2023-05-09T04:08:00.613Z,4.90
2023-05-09T04:10:28.655Z,4.90
2023-05-09T04:12:56.862Z,4.80
2023-05-09T04:15:25.716Z,4.80
2023-05-09T04:17:53.822Z,4.80
2023-05-09T04:20:22.001Z,4.80
2023-05-09T04:22:50.283Z,4.90
2023-05-09T04:25:21.445Z,4.90
2023-05-09T04:27:49.761Z,5.00
2023-05-09T04:30:18.062Z,5.10
2023-05-09T04:32:47.336Z,5.10
2023-05-09T04:35:17.492Z,5.30
2023-05-09T04:37:49.211Z,5.30
2023-05-09T04:40:18.230Z,5.50
2023-05-09T04:42:57.038Z,5.70
2023-05-09T04:45:28.407Z,5.80
2023-05-09T04:47:58.800Z,6.30
2023-05-09T04:50:26.909Z,7.00
2023-05-09T04:52:54.964Z,7.70
2023-05-09T04:55:23.294Z,8.40
2023-05-09T04:57:52.336Z,9.00
2023-05-09T05:00:22.874Z,9.80
2023-05-09T05:02:50.952Z,10.20
2023-05-09T05:05:25.021Z,10.70
2023-05-09T05:07:54.446Z,11.20
2023-05-09T05:10:26.367Z,11.80
2023-05-09T05:13:02.842Z,12.30
2023-05-09T05:15:32.574Z,12.80
2023-05-09T05:18:00.717Z,13.20
2023-05-09T05:20:34.352Z,13.60
2023-05-09T05:23:02.690Z,13.90
2023-05-09T05:25:31.293Z,14.20
2023-05-09T05:28:01.274Z,14.50
2023-05-09T05:30:30.750Z,14.70
2023-05-09T05:33:01.691Z,15.00
2023-05-09T05:35:29.809Z,15.20
2023-05-09T05:37:58.837Z,15.40
2023-05-09T05:40:27.865Z,15.60
2023-05-09T05:42:57.102Z,15.80
2023-05-09T05:45:26.226Z,15.60
2023-05-09T05:47:57.987Z,15.50
2023-05-09T05:50:27.450Z,15.50
2023-05-09T05:52:55.703Z,15.60
2023-05-09T05:55:24.530Z,15.70
2023-05-09T05:57:53.312Z,15.90
2023-05-09T06:00:21.718Z,16.10
2023-05-09T06:03:00.214Z,16.30
2023-05-09T06:05:43.224Z,16.40
2023-05-09T06:08:12.181Z,16.20
2023-05-09T06:10:40.121Z,16.10
2023-05-09T06:13:08.154Z,16.30
2023-05-09T06:15:38.018Z,16.40
2023-05-09T06:18:06.224Z,16.40
2023-05-09T06:20:35.879Z,16.70
2023-05-09T06:23:05.240Z,17.00
2023-05-09T06:25:33.328Z,17.20
2023-05-09T06:28:01.324Z,17.50
2023-05-09T06:30:29.420Z,17.90
2023-05-09T06:32:58.366Z,18.30
2023-05-09T06:35:26.456Z,18.50
2023-05-09T06:37:54.479Z,18.80
2023-05-09T06:40:23.935Z,19.00
2023-05-09T06:42:51.915Z,19.30
2023-05-09T06:45:21.470Z,19.40
2023-05-09T06:47:49.670Z,19.60
2023-05-09T06:50:17.736Z,19.80
2023-05-09T06:52:45.745Z,19.70
2023-05-09T06:55:13.774Z,19.40
2023-05-09T06:57:43.352Z,19.20
2023-05-09T07:00:12.540Z,19.20
2023-05-09T07:02:42.229Z,19.20
2023-05-09T07:05:11.181Z,19.30
2023-05-09T07:07:39.329Z,19.40
2023-05-09T07:10:11.906Z,19.50
2023-05-09T07:12:41.407Z,19.70
2023-05-09T07:15:11.993Z,19.70
2023-05-09T07:17:40.426Z,19.90
2023-05-09T07:20:09.171Z,20.00
2023-05-09T07:22:37.760Z,19.60
2023-05-09T07:25:08.455Z,19.00
2023-05-09T07:27:36.537Z,18.80
2023-05-09T07:30:05.046Z,18.70
2023-05-09T07:32:34.446Z,19.10
2023-05-09T07:35:03.104Z,19.50
2023-05-09T07:37:31.164Z,19.80
2023-05-09T07:39:59.217Z,20.30
2023-05-09T07:42:27.308Z,20.40
2023-05-09T07:44:55.416Z,20.60
2023-05-09T07:47:23.438Z,20.80
2023-05-09T07:49:52.858Z,20.70
2023-05-09T07:52:21.131Z,20.80
2023-05-09T07:54:49.230Z,21.00
2023-05-09T07:57:17.272Z,20.90
2023-05-09T07:59:45.337Z,20.90
2023-05-09T08:02:13.617Z,20.90
2023-05-09T08:04:42.061Z,21.10
2023-05-09T08:07:11.958Z,21.20
2023-05-09T08:09:39.999Z,21.40
2023-05-09T08:12:08.722Z,21.50
2023-05-09T08:14:36.762Z,21.60
2023-05-09T08:17:04.841Z,22.00
2023-05-09T08:19:32.797Z,22.30
2023-05-09T08:22:01.383Z,22.50
2023-05-09T08:24:31.909Z,22.40
2023-05-09T08:27:00.021Z,22.70
2023-05-09T08:29:28.949Z,23.00
2023-05-09T08:31:56.970Z,23.10
2023-05-09T08:34:25.017Z,22.70
2023-05-09T08:36:53.325Z,22.90
2023-05-09T08:39:21.284Z,23.10
2023-05-09T08:41:51.507Z,23.20
2023-05-09T08:44:21.563Z,23.20
2023-05-09T08:46:50.807Z,23.10
2023-05-09T08:49:19.966Z,23.50
2023-05-09T08:51:49.292Z,23.60
2023-05-09T08:54:17.726Z,23.50
2023-05-09T08:56:45.898Z,23.30
2023-05-09T08:59:15.851Z,23.40
2023-05-09T09:01:44.738Z,23.00
2023-05-09T09:04:12.797Z,22.40
2023-05-09T09:06:41.386Z,22.20
2023-05-09T09:09:10.542Z,21.90
2023-05-09T09:11:39.288Z,21.70
2023-05-09T09:14:13.056Z,22.00
2023-05-09T09:16:44.670Z,21.80
2023-05-09T09:19:14.901Z,21.60
2023-05-09T09:21:45.089Z,21.50
2023-05-09T09:24:14.741Z,21.70
2023-05-09T09:26:48.806Z,21.70
2023-05-09T09:29:17.650Z,22.00
2023-05-09T09:31:48.822Z,22.40
2023-05-09T09:34:22.431Z,22.40
2023-05-09T09:36:51.052Z,22.40
2023-05-09T09:39:19.347Z,22.60
2023-05-09T09:41:47.349Z,22.80
2023-05-09T09:44:16.526Z,22.70
2023-05-09T09:46:47.701Z,22.00
2023-05-09T09:49:17.321Z,22.10
2023-05-09T09:51:45.743Z,22.00
2023-05-09T09:54:14.269Z,21.90
2023-05-09T09:56:44.866Z,21.80
2023-05-09T09:59:14.394Z,21.30
2023-05-09T10:02:04.042Z,21.30
2023-05-09T10:04:36.439Z,21.50
2023-05-09T10:07:06.239Z,21.70
2023-05-09T10:09:36.080Z,21.70
2023-05-09T10:12:06.217Z,22.00
2023-05-09T10:14:36.323Z,22.20
2023-05-09T10:17:06.482Z,22.40
2023-05-09T10:19:36.843Z,22.40
2023-05-09T10:22:09.116Z,22.30
2023-05-09T10:24:43.136Z,22.30
2023-05-09T10:27:12.921Z,21.70
2023-05-09T10:29:47.255Z,21.60
2023-05-09T10:32:24.872Z,21.70
2023-05-09T10:34:55.634Z,21.70
2023-05-09T10:37:24.424Z,21.80
2023-05-09T10:39:53.852Z,22.00
2023-05-09T10:42:23.849Z,22.00
2023-05-09T10:44:53.483Z,21.90
2023-05-09T10:47:23.471Z,22.00
2023-05-09T10:49:51.960Z,22.20
2023-05-09T10:52:22.661Z,22.10
2023-05-09T10:55:01.653Z,22.30
2023-05-09T10:57:30.707Z,22.60
2023-05-09T11:00:00.234Z,22.40
2023-05-09T11:02:32.257Z,22.40
2023-05-09T11:05:18.674Z,22.60
2023-05-09T11:07:46.825Z,22.60
2023-05-09T11:10:17.681Z,22.40
2023-05-09T11:12:58.169Z,22.20
2023-05-09T11:15:27.492Z,22.40
2023-05-09T11:18:08.469Z,22.40
2023-05-09T11:20:43.315Z,22.40
2023-05-09T11:23:11.893Z,22.30
2023-05-09T11:25:41.318Z,22.30
2023-05-09T11:28:10.754Z,22.40
2023-05-09T11:30:41.981Z,22.40
2023-05-09T11:33:24.817Z,22.10
2023-05-09T11:36:18.517Z,22.10
2023-05-09T11:38:47.434Z,21.50
2023-05-09T11:41:16.018Z,21.60
2023-05-09T11:43:45.599Z,21.40
2023-05-09T11:46:13.580Z,21.40
2023-05-09T11:48:43.060Z,21.50
2023-05-09T11:51:18.675Z,21.60
2023-05-09T11:53:47.764Z,21.70
2023-05-09T11:56:16.625Z,21.90
2023-05-09T11:58:44.754Z,22.00
2023-05-09T12:01:13.690Z,21.90
2023-05-09T12:03:45.481Z,21.80
2023-05-09T12:06:17.385Z,21.60
2023-05-09T12:08:46.273Z,21.80
2023-05-09T12:11:15.314Z,21.80
2023-05-09T12:13:48.057Z,21.80
2023-05-09T12:16:17.443Z,21.50
2023-05-09T12:18:48.174Z,21.40
2023-05-09T12:21:16.524Z,21.40
2023-05-09T12:23:44.637Z,21.60
2023-05-09T12:26:12.860Z,21.70
2023-05-09T12:28:41.568Z,21.80
2023-05-09T12:31:10.072Z,22.00
2023-05-09T12:33:39.757Z,22.00
2023-05-09T12:36:12.338Z,21.90
2023-05-09T12:38:40.944Z,21.90
2023-05-09T12:41:18.758Z,22.00
2023-05-09T12:43:58.282Z,22.20
2023-05-09T12:46:26.344Z,22.10
2023-05-09T12:48:55.102Z,22.10
2023-05-09T12:51:24.813Z,22.30
2023-05-09T12:53:54.086Z,22.50
2023-05-09T12:56:23.640Z,22.40
2023-05-09T12:58:52.831Z,22.20
2023-05-09T13:01:21.680Z,22.00
2023-05-09T13:03:53.697Z,21.90
2023-05-09T13:06:22.820Z,21.80
2023-05-09T13:09:01.519Z,21.90
2023-05-09T13:11:30.606Z,21.90
2023-05-09T13:13:58.710Z,22.00
2023-05-09T13:16:26.945Z,21.90
2023-05-09T13:18:55.050Z,21.90
2023-05-09T13:21:23.058Z,21.70
2023-05-09T13:23:52.105Z,21.70
2023-05-09T13:26:21.558Z,21.80
2023-05-09T13:28:49.685Z,21.80
2023-05-09T13:31:20.502Z,21.80
2023-05-09T13:33:50.000Z,21.80
2023-05-09T13:36:19.644Z,21.90
2023-05-09T13:38:47.763Z,22.00
2023-05-09T13:41:20.201Z,22.10
2023-05-09T13:43:49.935Z,21.90
2023-05-09T13:46:18.053Z,21.50
2023-05-09T13:48:48.598Z,21.50
2023-05-09T13:51:16.627Z,21.70
2023-05-09T13:53:44.616Z,21.70
2023-05-09T13:56:12.718Z,21.30
2023-05-09T13:58:40.826Z,21.40
2023-05-09T14:01:10.280Z,21.50
2023-05-09T14:03:38.714Z,21.20
2023-05-09T14:06:08.740Z,21.30
2023-05-09T14:08:36.807Z,21.10
2023-05-09T14:11:05.283Z,21.30
2023-05-09T14:13:33.279Z,21.40
2023-05-09T14:16:01.378Z,21.50
2023-05-09T14:18:30.775Z,21.50
2023-05-09T14:20:58.962Z,21.60
2023-05-09T14:23:27.038Z,21.60
2023-05-09T14:25:55.113Z,21.50
2023-05-09T14:28:23.134Z,21.50
2023-05-09T14:30:51.059Z,21.60
2023-05-09T14:33:19.256Z,21.50
2023-05-09T14:35:48.811Z,21.30
2023-05-09T14:38:17.192Z,21.20
2023-05-09T14:40:45.198Z,21.00
2023-05-09T14:43:13.203Z,21.00
2023-05-09T14:45:41.222Z,21.00
2023-05-09T14:48:09.257Z,21.00
2023-05-09T14:50:37.206Z,21.00
2023-05-09T14:53:06.914Z,20.90
2023-05-09T14:55:34.921Z,20.80
2023-05-09T14:58:02.937Z,20.80
2023-05-09T15:00:31.290Z,20.70
2023-05-09T15:02:59.530Z,20.60
2023-05-09T15:05:27.831Z,20.10
2023-05-09T15:07:55.883Z,20.00
2023-05-09T15:10:26.511Z,20.00
2023-05-09T15:12:55.098Z,20.10
2023-05-09T15:15:24.277Z,20.20
2023-05-09T15:17:52.823Z,20.20
2023-05-09T15:20:21.125Z,20.20
2023-05-09T15:22:50.146Z,20.20
2023-05-09T15:25:18.419Z,20.10
2023-05-09T15:27:50.373Z,20.10
2023-05-09T15:30:18.556Z,19.90
2023-05-09T15:32:46.878Z,20.00
2023-05-09T15:35:15.835Z,20.10
2023-05-09T15:37:44.004Z,20.00
2023-05-09T15:40:13.355Z,19.90
2023-05-09T15:42:41.541Z,19.70
2023-05-09T15:45:11.447Z,19.80
2023-05-09T15:47:39.430Z,19.80
2023-05-09T15:50:08.734Z,19.80
2023-05-09T15:52:36.743Z,19.80
2023-05-09T15:55:05.207Z,19.70
2023-05-09T15:57:33.425Z,19.60
2023-05-09T16:00:01.414Z,19.40
2023-05-09T16:02:30.846Z,19.10
2023-05-09T16:04:58.917Z,19.10
2023-05-09T16:07:27.984Z,19.00
2023-05-09T16:09:56.097Z,19.00
2023-05-09T16:12:25.145Z,18.80
2023-05-09T16:14:53.214Z,18.50
2023-05-09T16:17:21.241Z,18.30
2023-05-09T16:19:50.515Z,18.20
2023-05-09T16:22:18.499Z,18.00
2023-05-09T16:24:47.598Z,17.70
2023-05-09T16:27:15.699Z,17.60
2023-05-09T16:29:43.972Z,17.40
2023-05-09T16:32:12.056Z,17.30
2023-05-09T16:34:40.422Z,17.20
2023-05-09T16:37:09.923Z,17.10
2023-05-09T16:39:37.981Z,16.90
2023-05-09T16:42:06.075Z,16.80
2023-05-09T16:44:34.077Z,16.80
2023-05-09T16:47:02.098Z,16.90
2023-05-09T16:49:30.115Z,16.90
2023-05-09T16:51:58.098Z,16.90
2023-05-09T16:54:27.580Z,17.00
2023-05-09T16:56:55.541Z,17.00
2023-05-09T16:59:23.537Z,17.00
2023-05-09T17:01:53.773Z,16.90
2023-05-09T17:04:21.846Z,16.80
2023-05-09T17:06:51.667Z,16.70
2023-05-09T17:09:19.738Z,16.70
2023-05-09T17:11:49.201Z,16.70
2023-05-09T17:14:17.118Z,16.60
2023-05-09T17:16:45.305Z,16.60
2023-05-09T17:19:13.269Z,16.60
2023-05-09T17:21:41.734Z,16.60
2023-05-09T17:24:10.298Z,16.50
2023-05-09T17:26:38.709Z,16.30
2023-05-09T17:29:08.001Z,16.20
2023-05-09T17:31:36.133Z,16.20
2023-05-09T17:34:04.209Z,16.20
2023-05-09T17:36:33.518Z,16.20
2023-05-09T17:39:01.821Z,16.10
2023-05-09T17:41:29.850Z,16.10
2023-05-09T17:43:58.091Z,16.00
2023-05-09T17:46:27.475Z,16.00
2023-05-09T17:48:55.469Z,15.90
2023-05-09T17:51:23.505Z,15.90
2023-05-09T17:53:52.797Z,15.80
2023-05-09T17:56:21.261Z,15.80
2023-05-09T17:58:52.895Z,15.60
2023-05-09T18:01:21.216Z,15.60
2023-05-09T18:03:50.759Z,15.50
2023-05-09T18:06:19.346Z,15.50
2023-05-09T18:08:47.429Z,15.40
2023-05-09T18:11:15.646Z,15.40
2023-05-09T18:13:43.728Z,15.30
2023-05-09T18:16:11.813Z,15.30
2023-05-09T18:18:39.878Z,15.40
2023-05-09T18:21:09.636Z,15.20
2023-05-09T18:23:37.711Z,15.20
2023-05-09T18:26:05.697Z,15.20
2023-05-09T18:28:39.183Z,15.20
2023-05-09T18:31:09.381Z,15.10
2023-05-09T18:33:38.988Z,15.10
2023-05-09T18:36:10.264Z,15.00
2023-05-09T18:38:39.319Z,15.00
2023-05-09T18:41:08.408Z,14.90
2023-05-09T18:43:38.694Z,14.80
2023-05-09T18:46:07.530Z,14.70
2023-05-09T18:48:35.656Z,14.70
2023-05-09T18:51:04.396Z,14.70
2023-05-09T18:53:33.662Z,14.60
2023-05-09T18:56:01.686Z,14.50
2023-05-09T18:58:29.729Z,14.40
2023-05-09T19:00:57.756Z,14.30
2023-05-09T19:03:27.204Z,14.30
2023-05-09T19:05:55.241Z,14.30
2023-05-09T19:08:23.348Z,14.20
2023-05-09T19:10:52.709Z,14.20
2023-05-09T19:13:20.917Z,14.00
2023-05-09T19:15:49.057Z,14.00
2023-05-09T19:18:17.000Z,13.90
2023-05-09T19:20:45.025Z,13.90
2023-05-09T19:23:13.027Z,13.90
2023-05-09T19:25:40.987Z,13.90
2023-05-09T19:28:11.133Z,13.80
2023-05-09T19:30:39.179Z,13.70
2023-05-09T19:33:07.167Z,13.70
2023-05-09T19:35:36.458Z,13.70
2023-05-09T19:38:04.423Z,13.70
2023-05-09T19:40:32.394Z,13.60
2023-05-09T19:43:00.358Z,13.60
2023-05-09T19:45:29.712Z,13.50
2023-05-09T19:47:57.703Z,13.60
2023-05-09T19:50:25.701Z,13.50
2023-05-09T19:52:53.771Z,13.50
2023-05-09T19:55:21.826Z,13.40
2023-05-09T19:57:49.799Z,13.40
2023-05-09T20:00:18.762Z,13.40
2023-05-09T20:02:48.281Z,13.40
2023-05-09T20:05:16.410Z,13.30
2023-05-09T20:07:44.379Z,13.40
2023-05-09T20:10:15.503Z,13.30
2023-05-09T20:12:43.724Z,13.40
2023-05-09T20:15:12.665Z,13.30
2023-05-09T20:17:40.708Z,13.30
2023-05-09T20:20:11.211Z,13.20
2023-05-09T20:22:39.221Z,13.30
2023-05-09T20:25:07.697Z,13.30
2023-05-09T20:27:37.265Z,13.30
2023-05-09T20:30:05.854Z,13.20
2023-05-09T20:32:33.979Z,13.20
2023-05-09T20:35:01.947Z,13.20
2023-05-09T20:37:31.265Z,13.20
2023-05-09T20:39:59.280Z,13.10
2023-05-09T20:42:27.341Z,13.10
2023-05-09T20:44:55.609Z,13.10
2023-05-09T20:47:23.577Z,13.10
2023-05-09T20:49:51.676Z,13.00
2023-05-09T20:52:19.685Z,13.00
2023-05-09T20:54:48.997Z,12.90
2023-05-09T20:57:17.014Z,12.90
2023-05-09T20:59:45.122Z,12.80
2023-05-09T21:02:13.680Z,12.80
2023-05-09T21:04:41.740Z,12.80
2023-05-09T21:07:10.142Z,12.70
2023-05-09T21:09:38.222Z,12.70
2023-05-09T21:12:10.470Z,12.70
2023-05-09T21:14:39.186Z,12.70
2023-05-09T21:17:07.270Z,12.60
2023-05-09T21:19:35.307Z,12.70
2023-05-09T21:22:03.380Z,12.70
2023-05-09T21:24:31.525Z,12.60
2023-05-09T21:26:59.861Z,12.50
2023-05-09T21:29:29.284Z,12.50
2023-05-09T21:31:57.217Z,12.40
2023-05-09T21:34:25.189Z,12.50
2023-05-09T21:36:53.139Z,12.40
2023-05-09T21:39:21.142Z,12.40
2023-05-09T21:41:49.092Z,12.40
2023-05-09T21:44:17.160Z,12.40
2023-05-09T21:46:46.774Z,12.30
2023-05-09T21:49:16.628Z,12.30
2023-05-09T21:51:44.651Z,12.20
2023-05-09T21:54:12.658Z,12.30
2023-05-09T21:56:42.492Z,12.30
2023-05-09T21:59:10.616Z,12.20
2023-05-09T22:01:38.638Z,12.10
2023-05-09T22:04:08.490Z,12.10
2023-05-09T22:06:36.479Z,12.10
2023-05-09T22:09:05.469Z,12.10
2023-05-09T22:11:33.664Z,12.00
2023-05-09T22:14:01.966Z,12.00
2023-05-09T22:16:30.431Z,11.90
2023-05-09T22:18:58.474Z,11.90
2023-05-09T22:21:27.765Z,12.00
2023-05-09T22:23:55.761Z,11.90
2023-05-09T22:26:23.708Z,11.80
2023-05-09T22:28:51.683Z,11.80
2023-05-09T22:31:19.843Z,11.80
2023-05-09T22:33:47.942Z,11.70
2023-05-09T22:36:15.939Z,11.70
2023-05-09T22:38:45.358Z,11.80
2023-05-09T22:41:13.409Z,11.70
2023-05-09T22:43:41.540Z,11.60
2023-05-09T22:46:10.310Z,11.60
2023-05-09T22:48:38.396Z,11.50
2023-05-09T22:51:06.426Z,11.50
2023-05-09T22:53:34.515Z,11.50
2023-05-09T22:56:04.362Z,11.50
2023-05-09T22:58:32.406Z,11.50
2023-05-09T23:01:00.515Z,11.40
2023-05-09T23:03:28.701Z,11.40
2023-05-09T23:05:56.747Z,11.40
2023-05-09T23:08:24.714Z,11.40
2023-05-09T23:10:52.931Z,11.40
2023-05-09T23:13:22.319Z,11.40
2023-05-09T23:15:50.426Z,11.30
2023-05-09T23:18:18.440Z,11.30
2023-05-09T23:20:46.566Z,11.30
2023-05-09T23:23:14.583Z,11.30
2023-05-09T23:25:42.543Z,11.30
2023-05-09T23:28:10.626Z,11.10
2023-05-09T23:30:40.449Z,11.10
2023-05-09T23:33:08.414Z,11.20
2023-05-09T23:35:36.423Z,11.20
2023-05-09T23:38:04.834Z,11.20
2023-05-09T23:40:32.818Z,11.10
2023-05-09T23:43:00.863Z,11.10
2023-05-09T23:45:28.837Z,11.10
2023-05-09T23:47:58.187Z,11.00
2023-05-09T23:50:26.532Z,11.10
2023-05-09T23:52:54.547Z,11.00
2023-05-09T23:55:22.546Z,11.00
2023-05-09T23:57:50.582Z,11.00
